עמוד ראשי
METAR-TAF:

METAR-TAF

שדות תעופה :

Chaitén, צ'ילה

קו רוחב: 42-55-58S, קו אורך: 072-41-58W, גובה: 4מטר

תצפית מזג אוויר נוכחית

הדו"ח נערך לפני 1 שעות ו 2דקות, בשעה 10:00 UTC
רוח 2קשר עם כיוונים משתנים
טמפרטורת 3 צלסיוס
לחות 100%
לחץ 1024 hPa
ראות 10 קילומטר או יותר
ללא עננים שבסיסם נמוך מ 5000 רגל או קומולונימבוס

METAR: SCTN 241000Z AUTO VRB02KT CAVOK 03/03 Q1024

זמן: 07:02 (11:02 UTC)


TAF: חסר

תצפיות ותחזיות מזג אוויר לגבי יותר מ- 4,000 שדות תעופה ברחבי העולם. דוחות METAR ו- TAF.

התחנות הזמינות מסומנות בנקודות צהובות ואדומות על גבי המפה.

העבר את העכבר לנקודה הצבעונית על מנת לראות את שם התחנה.

לאחר מכן, לחץ כדי לראות את תוכן ואת תחזיות מזג האוויר.

כדי לשנות את המפה: לחץ על הכפתורים הירוקים עם הפלוס השחור כדי להתקרב; על הכפתור הירוק עם המקף כדי להתרחק; או בחיצים הירוקים למפות סמוכות.


METAR-TAF: